sensor_id;sensor_type;location;lat;lon;timestamp;temperature;humidity
16643;DHT22;8435;52.184;5.406;2023-11-18T00:00:14;8.30;99.90
16643;DHT22;8435;52.184;5.406;2023-11-18T00:02:42;8.30;99.90
16643;DHT22;8435;52.184;5.406;2023-11-18T00:05:09;8.30;99.90
16643;DHT22;8435;52.184;5.406;2023-11-18T00:07:36;8.20;99.90
16643;DHT22;8435;52.184;5.406;2023-11-18T00:10:05;8.20;99.90
16643;DHT22;8435;52.184;5.406;2023-11-18T00:12:34;8.20;99.90
16643;DHT22;8435;52.184;5.406;2023-11-18T00:15:01;8.10;99.90
16643;DHT22;8435;52.184;5.406;2023-11-18T00:17:29;8.10;99.90
16643;DHT22;8435;52.184;5.406;2023-11-18T00:19:56;8.10;99.90
16643;DHT22;8435;52.184;5.406;2023-11-18T00:22:23;8.10;99.90
16643;DHT22;8435;52.184;5.406;2023-11-18T00:24:49;8.00;99.90
16643;DHT22;8435;52.184;5.406;2023-11-18T00:27:19;8.10;99.90
16643;DHT22;8435;52.184;5.406;2023-11-18T00:29:45;8.10;99.90
16643;DHT22;8435;52.184;5.406;2023-11-18T00:32:12;8.10;99.90
16643;DHT22;8435;52.184;5.406;2023-11-18T00:34:39;8.00;99.90
16643;DHT22;8435;52.184;5.406;2023-11-18T00:37:06;8.10;99.90
16643;DHT22;8435;52.184;5.406;2023-11-18T00:39:35;8.10;99.90
16643;DHT22;8435;52.184;5.406;2023-11-18T00:42:03;8.10;99.90
16643;DHT22;8435;52.184;5.406;2023-11-18T00:44:31;8.10;99.90
16643;DHT22;8435;52.184;5.406;2023-11-18T00:46:58;8.00;99.90
16643;DHT22;8435;52.184;5.406;2023-11-18T00:49:26;8.10;99.90
16643;DHT22;8435;52.184;5.406;2023-11-18T00:51:53;8.10;99.90
16643;DHT22;8435;52.184;5.406;2023-11-18T00:54:20;8.10;99.90
16643;DHT22;8435;52.184;5.406;2023-11-18T00:56:46;8.10;99.90
16643;DHT22;8435;52.184;5.406;2023-11-18T00:59:13;8.10;99.90
16643;DHT22;8435;52.184;5.406;2023-11-18T01:01:42;8.10;99.90
16643;DHT22;8435;52.184;5.406;2023-11-18T01:04:09;8.10;99.90
16643;DHT22;8435;52.184;5.406;2023-11-18T01:06:36;8.10;99.90
16643;DHT22;8435;52.184;5.406;2023-11-18T01:09:03;8.10;99.90
16643;DHT22;8435;52.184;5.406;2023-11-18T01:11:32;8.20;99.90
16643;DHT22;8435;52.184;5.406;2023-11-18T01:13:59;8.20;99.90
16643;DHT22;8435;52.184;5.406;2023-11-18T01:16:25;8.20;99.90
16643;DHT22;8435;52.184;5.406;2023-11-18T01:18:55;8.30;99.90
16643;DHT22;8435;52.184;5.406;2023-11-18T01:21:22;8.30;99.90
16643;DHT22;8435;52.184;5.406;2023-11-18T01:23:49;8.30;99.90
16643;DHT22;8435;52.184;5.406;2023-11-18T01:26:16;8.40;99.90
16643;DHT22;8435;52.184;5.406;2023-11-18T01:28:43;8.40;99.90
16643;DHT22;8435;52.184;5.406;2023-11-18T01:31:11;8.40;99.90
16643;DHT22;8435;52.184;5.406;2023-11-18T01:33:39;8.40;99.90
16643;DHT22;8435;52.184;5.406;2023-11-18T01:36:08;8.40;99.90
16643;DHT22;8435;52.184;5.406;2023-11-18T01:38:35;8.50;99.90
16643;DHT22;8435;52.184;5.406;2023-11-18T01:41:03;8.40;99.90
16643;DHT22;8435;52.184;5.406;2023-11-18T01:43:31;8.50;99.90
16643;DHT22;8435;52.184;5.406;2023-11-18T01:45:58;8.50;99.90
16643;DHT22;8435;52.184;5.406;2023-11-18T01:48:27;8.50;99.90
16643;DHT22;8435;52.184;5.406;2023-11-18T01:50:56;8.50;99.90
16643;DHT22;8435;52.184;5.406;2023-11-18T01:53:25;8.50;99.90
16643;DHT22;8435;52.184;5.406;2023-11-18T01:55:52;8.40;99.90
16643;DHT22;8435;52.184;5.406;2023-11-18T01:58:19;8.40;99.90
16643;DHT22;8435;52.184;5.406;2023-11-18T02:00:49;8.40;99.90
16643;DHT22;8435;52.184;5.406;2023-11-18T02:03:17;8.40;99.90
16643;DHT22;8435;52.184;5.406;2023-11-18T02:05:44;8.40;99.90
16643;DHT22;8435;52.184;5.406;2023-11-18T02:08:11;8.40;99.90
16643;DHT22;8435;52.184;5.406;2023-11-18T02:10:47;8.40;99.90
16643;DHT22;8435;52.184;5.406;2023-11-18T02:13:22;8.50;99.90
16643;DHT22;8435;52.184;5.406;2023-11-18T02:15:53;8.40;99.90
16643;DHT22;8435;52.184;5.406;2023-11-18T02:18:21;8.40;99.90
16643;DHT22;8435;52.184;5.406;2023-11-18T02:20:49;8.40;99.90
16643;DHT22;8435;52.184;5.406;2023-11-18T02:23:17;8.40;99.90
16643;DHT22;8435;52.184;5.406;2023-11-18T02:25:45;8.40;99.90
16643;DHT22;8435;52.184;5.406;2023-11-18T02:28:13;8.40;99.90
16643;DHT22;8435;52.184;5.406;2023-11-18T02:30:40;8.40;99.90
16643;DHT22;8435;52.184;5.406;2023-11-18T02:33:11;8.40;99.90
16643;DHT22;8435;52.184;5.406;2023-11-18T02:35:45;8.40;99.90
16643;DHT22;8435;52.184;5.406;2023-11-18T02:38:15;8.40;99.90
16643;DHT22;8435;52.184;5.406;2023-11-18T02:40:45;8.50;99.90
16643;DHT22;8435;52.184;5.406;2023-11-18T02:43:15;8.50;99.90
16643;DHT22;8435;52.184;5.406;2023-11-18T02:45:43;8.50;99.90
16643;DHT22;8435;52.184;5.406;2023-11-18T02:48:10;8.40;99.90
16643;DHT22;8435;52.184;5.406;2023-11-18T02:50:37;8.50;99.90
16643;DHT22;8435;52.184;5.406;2023-11-18T02:53:07;8.50;99.90
16643;DHT22;8435;52.184;5.406;2023-11-18T02:55:35;8.50;99.90
16643;DHT22;8435;52.184;5.406;2023-11-18T02:58:03;8.50;99.90
16643;DHT22;8435;52.184;5.406;2023-11-18T03:00:29;8.50;99.90
16643;DHT22;8435;52.184;5.406;2023-11-18T03:02:56;8.50;99.90
16643;DHT22;8435;52.184;5.406;2023-11-18T03:05:23;8.50;99.90
16643;DHT22;8435;52.184;5.406;2023-11-18T03:07:52;8.40;99.90
16643;DHT22;8435;52.184;5.406;2023-11-18T03:10:23;8.40;99.90
16643;DHT22;8435;52.184;5.406;2023-11-18T03:12:50;8.50;99.90
16643;DHT22;8435;52.184;5.406;2023-11-18T03:15:20;8.40;99.90
16643;DHT22;8435;52.184;5.406;2023-11-18T03:17:47;8.40;99.90
16643;DHT22;8435;52.184;5.406;2023-11-18T03:20:15;8.40;99.90
16643;DHT22;8435;52.184;5.406;2023-11-18T03:22:42;8.40;99.90
16643;DHT22;8435;52.184;5.406;2023-11-18T03:25:10;8.40;99.90
16643;DHT22;8435;52.184;5.406;2023-11-18T03:27:37;8.40;99.90
16643;DHT22;8435;52.184;5.406;2023-11-18T03:30:05;8.40;99.90
16643;DHT22;8435;52.184;5.406;2023-11-18T03:32:34;8.40;99.90
16643;DHT22;8435;52.184;5.406;2023-11-18T03:35:02;8.30;99.90
16643;DHT22;8435;52.184;5.406;2023-11-18T03:37:29;8.30;99.90
16643;DHT22;8435;52.184;5.406;2023-11-18T03:39:56;8.40;99.90
16643;DHT22;8435;52.184;5.406;2023-11-18T03:42:23;8.30;99.90
16643;DHT22;8435;52.184;5.406;2023-11-18T03:44:50;8.30;99.90
16643;DHT22;8435;52.184;5.406;2023-11-18T03:47:17;8.30;99.90
16643;DHT22;8435;52.184;5.406;2023-11-18T03:49:45;8.30;99.90
16643;DHT22;8435;52.184;5.406;2023-11-18T03:52:12;8.30;99.90
16643;DHT22;8435;52.184;5.406;2023-11-18T03:54:39;8.30;99.90
16643;DHT22;8435;52.184;5.406;2023-11-18T03:57:07;8.30;99.90
16643;DHT22;8435;52.184;5.406;2023-11-18T03:59:34;8.30;99.90
16643;DHT22;8435;52.184;5.406;2023-11-18T04:02:00;8.30;99.90
16643;DHT22;8435;52.184;5.406;2023-11-18T04:04:27;8.40;99.90
16643;DHT22;8435;52.184;5.406;2023-11-18T04:06:56;8.40;99.90
16643;DHT22;8435;52.184;5.406;2023-11-18T04:09:26;8.40;99.90
16643;DHT22;8435;52.184;5.406;2023-11-18T04:11:53;8.30;99.90
16643;DHT22;8435;52.184;5.406;2023-11-18T04:14:20;8.30;99.90
16643;DHT22;8435;52.184;5.406;2023-11-18T04:16:47;8.30;99.90
16643;DHT22;8435;52.184;5.406;2023-11-18T04:19:14;8.30;99.90
16643;DHT22;8435;52.184;5.406;2023-11-18T04:21:41;8.30;99.90
16643;DHT22;8435;52.184;5.406;2023-11-18T04:24:10;8.30;99.90
16643;DHT22;8435;52.184;5.406;2023-11-18T04:26:37;8.40;99.90
16643;DHT22;8435;52.184;5.406;2023-11-18T04:29:04;8.30;99.90
16643;DHT22;8435;52.184;5.406;2023-11-18T04:31:30;8.30;99.90
16643;DHT22;8435;52.184;5.406;2023-11-18T04:33:57;8.30;99.90
16643;DHT22;8435;52.184;5.406;2023-11-18T04:36:24;8.30;99.90
16643;DHT22;8435;52.184;5.406;2023-11-18T04:38:52;8.30;99.90
16643;DHT22;8435;52.184;5.406;2023-11-18T04:41:20;8.40;99.90
16643;DHT22;8435;52.184;5.406;2023-11-18T04:43:48;8.30;99.90
16643;DHT22;8435;52.184;5.406;2023-11-18T04:46:15;8.30;99.90
16643;DHT22;8435;52.184;5.406;2023-11-18T04:48:42;8.40;99.90
16643;DHT22;8435;52.184;5.406;2023-11-18T04:51:09;8.30;99.90
16643;DHT22;8435;52.184;5.406;2023-11-18T04:53:37;8.40;99.90
16643;DHT22;8435;52.184;5.406;2023-11-18T04:56:05;8.30;99.90
16643;DHT22;8435;52.184;5.406;2023-11-18T04:58:37;8.40;99.90
16643;DHT22;8435;52.184;5.406;2023-11-18T05:01:04;8.30;99.90
16643;DHT22;8435;52.184;5.406;2023-11-18T05:03:31;8.40;99.90
16643;DHT22;8435;52.184;5.406;2023-11-18T05:05:58;8.40;99.90
16643;DHT22;8435;52.184;5.406;2023-11-18T05:08:25;8.40;99.90
16643;DHT22;8435;52.184;5.406;2023-11-18T05:10:52;8.40;99.90
16643;DHT22;8435;52.184;5.406;2023-11-18T05:13:19;8.40;99.90
16643;DHT22;8435;52.184;5.406;2023-11-18T05:15:49;8.40;99.90
16643;DHT22;8435;52.184;5.406;2023-11-18T05:18:19;8.40;99.90
16643;DHT22;8435;52.184;5.406;2023-11-18T05:20:46;8.40;99.90
16643;DHT22;8435;52.184;5.406;2023-11-18T05:23:13;8.40;99.90
16643;DHT22;8435;52.184;5.406;2023-11-18T05:25:41;8.40;99.90
16643;DHT22;8435;52.184;5.406;2023-11-18T05:28:08;8.40;99.90
16643;DHT22;8435;52.184;5.406;2023-11-18T05:30:35;8.50;99.90
16643;DHT22;8435;52.184;5.406;2023-11-18T05:33:03;8.50;99.90
16643;DHT22;8435;52.184;5.406;2023-11-18T05:35:31;8.50;99.90
16643;DHT22;8435;52.184;5.406;2023-11-18T05:37:58;8.50;99.90
16643;DHT22;8435;52.184;5.406;2023-11-18T05:40:25;8.50;99.90
16643;DHT22;8435;52.184;5.406;2023-11-18T05:42:54;8.50;99.90
16643;DHT22;8435;52.184;5.406;2023-11-18T05:45:21;8.60;99.90
16643;DHT22;8435;52.184;5.406;2023-11-18T05:47:57;8.50;99.90
16643;DHT22;8435;52.184;5.406;2023-11-18T05:50:25;8.60;99.90
16643;DHT22;8435;52.184;5.406;2023-11-18T05:52:53;8.50;99.90
16643;DHT22;8435;52.184;5.406;2023-11-18T05:55:20;8.60;99.90
16643;DHT22;8435;52.184;5.406;2023-11-18T05:57:46;8.60;99.90
16643;DHT22;8435;52.184;5.406;2023-11-18T06:00:14;8.60;99.90
16643;DHT22;8435;52.184;5.406;2023-11-18T06:02:41;8.60;99.90
16643;DHT22;8435;52.184;5.406;2023-11-18T06:05:10;8.60;99.90
16643;DHT22;8435;52.184;5.406;2023-11-18T06:07:39;8.60;99.90
16643;DHT22;8435;52.184;5.406;2023-11-18T06:10:08;8.60;99.90
16643;DHT22;8435;52.184;5.406;2023-11-18T06:12:35;8.60;99.90
16643;DHT22;8435;52.184;5.406;2023-11-18T06:15:06;8.60;99.90
16643;DHT22;8435;52.184;5.406;2023-11-18T06:17:34;8.60;99.90
16643;DHT22;8435;52.184;5.406;2023-11-18T06:20:01;8.60;99.90
16643;DHT22;8435;52.184;5.406;2023-11-18T06:22:31;8.60;99.90
16643;DHT22;8435;52.184;5.406;2023-11-18T06:24:59;8.60;99.90
16643;DHT22;8435;52.184;5.406;2023-11-18T06:27:26;8.60;99.90
16643;DHT22;8435;52.184;5.406;2023-11-18T06:29:53;8.60;99.90
16643;DHT22;8435;52.184;5.406;2023-11-18T06:32:20;8.60;99.90
16643;DHT22;8435;52.184;5.406;2023-11-18T06:34:47;8.60;99.90
16643;DHT22;8435;52.184;5.406;2023-11-18T06:37:15;8.60;99.90
16643;DHT22;8435;52.184;5.406;2023-11-18T06:39:42;8.60;99.90
16643;DHT22;8435;52.184;5.406;2023-11-18T06:42:14;8.60;99.90
16643;DHT22;8435;52.184;5.406;2023-11-18T06:44:41;8.70;99.90
16643;DHT22;8435;52.184;5.406;2023-11-18T06:47:08;8.60;99.90
16643;DHT22;8435;52.184;5.406;2023-11-18T06:49:38;8.70;99.90
16643;DHT22;8435;52.184;5.406;2023-11-18T06:52:06;8.70;99.90
16643;DHT22;8435;52.184;5.406;2023-11-18T06:54:35;8.70;99.90
16643;DHT22;8435;52.184;5.406;2023-11-18T06:57:03;8.60;99.90
16643;DHT22;8435;52.184;5.406;2023-11-18T06:59:31;8.70;99.90
16643;DHT22;8435;52.184;5.406;2023-11-18T07:01:58;8.70;99.90
16643;DHT22;8435;52.184;5.406;2023-11-18T07:04:25;8.70;99.90
16643;DHT22;8435;52.184;5.406;2023-11-18T07:06:51;8.70;99.90
16643;DHT22;8435;52.184;5.406;2023-11-18T07:09:18;8.70;99.90
16643;DHT22;8435;52.184;5.406;2023-11-18T07:11:47;8.70;99.90
16643;DHT22;8435;52.184;5.406;2023-11-18T07:14:14;8.70;99.90
16643;DHT22;8435;52.184;5.406;2023-11-18T07:16:42;8.70;99.90
16643;DHT22;8435;52.184;5.406;2023-11-18T07:19:10;8.80;99.90
16643;DHT22;8435;52.184;5.406;2023-11-18T07:21:43;8.70;99.90
16643;DHT22;8435;52.184;5.406;2023-11-18T07:24:09;8.80;99.90
16643;DHT22;8435;52.184;5.406;2023-11-18T07:26:36;8.70;99.90
16643;DHT22;8435;52.184;5.406;2023-11-18T07:29:03;8.80;99.90
16643;DHT22;8435;52.184;5.406;2023-11-18T07:31:33;8.80;99.90
16643;DHT22;8435;52.184;5.406;2023-11-18T07:34:03;8.80;99.90
16643;DHT22;8435;52.184;5.406;2023-11-18T07:36:31;8.80;99.90
16643;DHT22;8435;52.184;5.406;2023-11-18T07:39:00;8.80;99.90
16643;DHT22;8435;52.184;5.406;2023-11-18T07:41:31;8.70;99.90
16643;DHT22;8435;52.184;5.406;2023-11-18T07:43:58;8.80;99.90
16643;DHT22;8435;52.184;5.406;2023-11-18T07:46:26;8.80;99.90
16643;DHT22;8435;52.184;5.406;2023-11-18T07:48:54;8.80;99.90
16643;DHT22;8435;52.184;5.406;2023-11-18T07:51:23;8.80;99.90
16643;DHT22;8435;52.184;5.406;2023-11-18T07:53:51;8.80;99.90
16643;DHT22;8435;52.184;5.406;2023-11-18T07:56:18;8.80;99.90
16643;DHT22;8435;52.184;5.406;2023-11-18T07:58:48;8.80;99.90
16643;DHT22;8435;52.184;5.406;2023-11-18T08:01:21;8.80;99.90
16643;DHT22;8435;52.184;5.406;2023-11-18T08:03:49;8.80;99.90
16643;DHT22;8435;52.184;5.406;2023-11-18T08:06:18;8.80;99.90
16643;DHT22;8435;52.184;5.406;2023-11-18T08:08:46;8.80;99.90
16643;DHT22;8435;52.184;5.406;2023-11-18T08:11:13;8.80;99.90
16643;DHT22;8435;52.184;5.406;2023-11-18T08:13:40;8.80;99.90
16643;DHT22;8435;52.184;5.406;2023-11-18T08:16:08;8.80;99.90
16643;DHT22;8435;52.184;5.406;2023-11-18T08:18:35;8.80;99.90
16643;DHT22;8435;52.184;5.406;2023-11-18T08:21:08;8.80;99.90
16643;DHT22;8435;52.184;5.406;2023-11-18T08:23:36;8.80;99.90
16643;DHT22;8435;52.184;5.406;2023-11-18T08:26:04;8.90;99.90
16643;DHT22;8435;52.184;5.406;2023-11-18T08:28:32;8.90;99.90
16643;DHT22;8435;52.184;5.406;2023-11-18T08:31:02;8.90;99.90
16643;DHT22;8435;52.184;5.406;2023-11-18T08:33:29;8.90;99.90
16643;DHT22;8435;52.184;5.406;2023-11-18T08:35:55;8.90;99.90
16643;DHT22;8435;52.184;5.406;2023-11-18T08:38:23;8.80;99.90
16643;DHT22;8435;52.184;5.406;2023-11-18T08:40:52;8.90;99.90
16643;DHT22;8435;52.184;5.406;2023-11-18T08:43:22;8.90;99.90
16643;DHT22;8435;52.184;5.406;2023-11-18T08:45:49;9.00;99.90
16643;DHT22;8435;52.184;5.406;2023-11-18T08:48:16;9.00;99.90
16643;DHT22;8435;52.184;5.406;2023-11-18T08:50:43;9.00;99.90
16643;DHT22;8435;52.184;5.406;2023-11-18T08:53:14;9.10;99.90
16643;DHT22;8435;52.184;5.406;2023-11-18T08:55:44;9.10;99.90
16643;DHT22;8435;52.184;5.406;2023-11-18T08:58:16;9.10;99.90
16643;DHT22;8435;52.184;5.406;2023-11-18T09:00:49;9.10;99.90
16643;DHT22;8435;52.184;5.406;2023-11-18T09:03:20;9.20;99.90
16643;DHT22;8435;52.184;5.406;2023-11-18T09:06:01;9.20;99.90
16643;DHT22;8435;52.184;5.406;2023-11-18T09:08:31;9.20;99.90
16643;DHT22;8435;52.184;5.406;2023-11-18T09:11:00;9.20;99.90
16643;DHT22;8435;52.184;5.406;2023-11-18T09:13:28;9.20;99.90
16643;DHT22;8435;52.184;5.406;2023-11-18T09:15:57;9.30;99.90
16643;DHT22;8435;52.184;5.406;2023-11-18T09:18:24;9.30;99.90
16643;DHT22;8435;52.184;5.406;2023-11-18T09:20:53;9.30;99.90
16643;DHT22;8435;52.184;5.406;2023-11-18T09:23:21;9.30;99.90
16643;DHT22;8435;52.184;5.406;2023-11-18T09:25:52;9.40;99.90
16643;DHT22;8435;52.184;5.406;2023-11-18T09:28:20;9.40;99.90
16643;DHT22;8435;52.184;5.406;2023-11-18T09:30:47;9.40;99.90
16643;DHT22;8435;52.184;5.406;2023-11-18T09:33:21;9.50;99.90
16643;DHT22;8435;52.184;5.406;2023-11-18T09:35:58;9.50;99.90
16643;DHT22;8435;52.184;5.406;2023-11-18T09:38:28;9.50;99.90
16643;DHT22;8435;52.184;5.406;2023-11-18T09:40:56;9.50;99.90
16643;DHT22;8435;52.184;5.406;2023-11-18T09:43:26;9.50;99.90
16643;DHT22;8435;52.184;5.406;2023-11-18T09:46:04;9.60;99.90
16643;DHT22;8435;52.184;5.406;2023-11-18T09:48:42;9.60;99.90
16643;DHT22;8435;52.184;5.406;2023-11-18T09:51:19;9.60;99.90
16643;DHT22;8435;52.184;5.406;2023-11-18T09:53:51;9.60;99.90
16643;DHT22;8435;52.184;5.406;2023-11-18T09:56:23;9.60;99.90
16643;DHT22;8435;52.184;5.406;2023-11-18T09:59:05;9.60;99.90
16643;DHT22;8435;52.184;5.406;2023-11-18T10:01:38;9.60;99.90
16643;DHT22;8435;52.184;5.406;2023-11-18T10:04:06;9.60;99.90
16643;DHT22;8435;52.184;5.406;2023-11-18T10:06:35;9.60;99.90
16643;DHT22;8435;52.184;5.406;2023-11-18T10:09:07;9.60;99.90
16643;DHT22;8435;52.184;5.406;2023-11-18T10:11:43;9.60;99.90
16643;DHT22;8435;52.184;5.406;2023-11-18T10:14:13;9.60;99.90
16643;DHT22;8435;52.184;5.406;2023-11-18T10:16:42;9.60;99.90
16643;DHT22;8435;52.184;5.406;2023-11-18T10:19:12;9.60;99.90
16643;DHT22;8435;52.184;5.406;2023-11-18T10:21:40;9.60;99.90
16643;DHT22;8435;52.184;5.406;2023-11-18T10:24:07;9.60;99.90
16643;DHT22;8435;52.184;5.406;2023-11-18T10:26:41;9.60;99.90
16643;DHT22;8435;52.184;5.406;2023-11-18T10:29:09;9.60;99.90
16643;DHT22;8435;52.184;5.406;2023-11-18T10:31:36;9.70;99.90
16643;DHT22;8435;52.184;5.406;2023-11-18T10:34:12;9.70;99.90
16643;DHT22;8435;52.184;5.406;2023-11-18T10:36:41;9.70;99.90
16643;DHT22;8435;52.184;5.406;2023-11-18T10:39:13;9.70;99.90
16643;DHT22;8435;52.184;5.406;2023-11-18T10:41:42;9.70;99.90
16643;DHT22;8435;52.184;5.406;2023-11-18T10:44:11;9.70;99.90
16643;DHT22;8435;52.184;5.406;2023-11-18T10:46:41;9.70;99.90
16643;DHT22;8435;52.184;5.406;2023-11-18T10:49:08;9.70;99.90
16643;DHT22;8435;52.184;5.406;2023-11-18T10:51:36;9.70;99.90
16643;DHT22;8435;52.184;5.406;2023-11-18T10:54:05;9.70;99.90
16643;DHT22;8435;52.184;5.406;2023-11-18T10:56:46;9.70;99.90
16643;DHT22;8435;52.184;5.406;2023-11-18T10:59:13;9.70;99.90
16643;DHT22;8435;52.184;5.406;2023-11-18T11:01:42;9.70;99.90
16643;DHT22;8435;52.184;5.406;2023-11-18T11:04:09;9.70;99.90
16643;DHT22;8435;52.184;5.406;2023-11-18T11:06:41;9.80;99.90
16643;DHT22;8435;52.184;5.406;2023-11-18T11:09:08;9.80;99.90
16643;DHT22;8435;52.184;5.406;2023-11-18T11:11:46;9.80;99.90
16643;DHT22;8435;52.184;5.406;2023-11-18T11:14:15;9.80;99.90
16643;DHT22;8435;52.184;5.406;2023-11-18T11:16:47;9.80;99.90
16643;DHT22;8435;52.184;5.406;2023-11-18T11:19:23;9.80;99.90
16643;DHT22;8435;52.184;5.406;2023-11-18T11:22:00;9.80;99.90
16643;DHT22;8435;52.184;5.406;2023-11-18T11:24:43;9.90;99.90
16643;DHT22;8435;52.184;5.406;2023-11-18T11:27:21;9.80;99.90
16643;DHT22;8435;52.184;5.406;2023-11-18T11:29:59;9.90;99.90
16643;DHT22;8435;52.184;5.406;2023-11-18T11:32:39;9.90;99.90
16643;DHT22;8435;52.184;5.406;2023-11-18T11:35:18;9.80;99.90
16643;DHT22;8435;52.184;5.406;2023-11-18T11:37:49;9.80;99.90
16643;DHT22;8435;52.184;5.406;2023-11-18T11:40:16;9.90;99.90
16643;DHT22;8435;52.184;5.406;2023-11-18T11:42:50;9.80;99.90
16643;DHT22;8435;52.184;5.406;2023-11-18T11:45:21;9.90;99.90
16643;DHT22;8435;52.184;5.406;2023-11-18T11:47:55;9.90;99.90
16643;DHT22;8435;52.184;5.406;2023-11-18T11:53:34;9.90;99.90
16643;DHT22;8435;52.184;5.406;2023-11-18T11:56:05;10.00;99.90
16643;DHT22;8435;52.184;5.406;2023-11-18T11:58:34;10.00;99.90
16643;DHT22;8435;52.184;5.406;2023-11-18T12:01:15;10.00;99.90
16643;DHT22;8435;52.184;5.406;2023-11-18T12:03:46;10.00;99.90
16643;DHT22;8435;52.184;5.406;2023-11-18T12:06:18;10.00;99.90
16643;DHT22;8435;52.184;5.406;2023-11-18T12:08:48;10.00;99.90
16643;DHT22;8435;52.184;5.406;2023-11-18T12:11:17;10.10;99.90
16643;DHT22;8435;52.184;5.406;2023-11-18T12:14:03;10.10;99.90
16643;DHT22;8435;52.184;5.406;2023-11-18T12:17:03;10.10;99.90
16643;DHT22;8435;52.184;5.406;2023-11-18T12:19:40;10.10;99.90
16643;DHT22;8435;52.184;5.406;2023-11-18T12:22:14;10.10;99.90
16643;DHT22;8435;52.184;5.406;2023-11-18T12:28:10;10.20;99.90
16643;DHT22;8435;52.184;5.406;2023-11-18T12:30:44;10.20;99.90
16643;DHT22;8435;52.184;5.406;2023-11-18T12:34:01;10.20;99.90
16643;DHT22;8435;52.184;5.406;2023-11-18T12:37:04;10.30;99.90
16643;DHT22;8435;52.184;5.406;2023-11-18T12:40:08;10.30;99.90
16643;DHT22;8435;52.184;5.406;2023-11-18T12:43:04;10.30;99.90
16643;DHT22;8435;52.184;5.406;2023-11-18T12:45:49;10.30;99.90
16643;DHT22;8435;52.184;5.406;2023-11-18T12:48:21;10.40;99.90
16643;DHT22;8435;52.184;5.406;2023-11-18T12:50:53;10.30;99.90
16643;DHT22;8435;52.184;5.406;2023-11-18T12:53:22;10.40;99.90
16643;DHT22;8435;52.184;5.406;2023-11-18T12:55:50;10.40;99.90
16643;DHT22;8435;52.184;5.406;2023-11-18T12:58:19;10.40;99.90
16643;DHT22;8435;52.184;5.406;2023-11-18T13:00:47;10.40;99.90
16643;DHT22;8435;52.184;5.406;2023-11-18T13:03:15;10.50;99.90
16643;DHT22;8435;52.184;5.406;2023-11-18T13:05:43;10.50;99.90
16643;DHT22;8435;52.184;5.406;2023-11-18T13:08:11;10.60;99.90
16643;DHT22;8435;52.184;5.406;2023-11-18T13:10:41;10.60;99.90
16643;DHT22;8435;52.184;5.406;2023-11-18T13:13:08;10.60;99.90
16643;DHT22;8435;52.184;5.406;2023-11-18T13:15:39;10.60;99.90
16643;DHT22;8435;52.184;5.406;2023-11-18T13:18:08;10.60;99.90
16643;DHT22;8435;52.184;5.406;2023-11-18T13:20:36;10.60;99.90
16643;DHT22;8435;52.184;5.406;2023-11-18T13:23:03;10.60;99.90
16643;DHT22;8435;52.184;5.406;2023-11-18T13:25:34;10.60;99.90
16643;DHT22;8435;52.184;5.406;2023-11-18T13:28:03;10.60;99.90
16643;DHT22;8435;52.184;5.406;2023-11-18T13:30:30;10.60;99.90
16643;DHT22;8435;52.184;5.406;2023-11-18T13:32:57;10.60;99.90
16643;DHT22;8435;52.184;5.406;2023-11-18T13:35:26;10.60;99.90
16643;DHT22;8435;52.184;5.406;2023-11-18T13:37:54;10.70;99.90
16643;DHT22;8435;52.184;5.406;2023-11-18T13:40:21;10.70;99.90
16643;DHT22;8435;52.184;5.406;2023-11-18T13:43:01;10.70;99.90
16643;DHT22;8435;52.184;5.406;2023-11-18T13:45:28;10.70;99.90
16643;DHT22;8435;52.184;5.406;2023-11-18T13:47:56;10.60;99.90
16643;DHT22;8435;52.184;5.406;2023-11-18T13:50:23;10.70;99.90
16643;DHT22;8435;52.184;5.406;2023-11-18T13:52:52;10.70;99.90
16643;DHT22;8435;52.184;5.406;2023-11-18T13:55:19;10.70;99.90
16643;DHT22;8435;52.184;5.406;2023-11-18T13:57:52;10.70;99.90
16643;DHT22;8435;52.184;5.406;2023-11-18T14:00:22;10.70;99.90
16643;DHT22;8435;52.184;5.406;2023-11-18T14:02:48;10.70;99.90
16643;DHT22;8435;52.184;5.406;2023-11-18T14:05:17;10.70;99.90
16643;DHT22;8435;52.184;5.406;2023-11-18T14:07:45;10.70;99.90
16643;DHT22;8435;52.184;5.406;2023-11-18T14:10:15;10.70;99.90
16643;DHT22;8435;52.184;5.406;2023-11-18T14:12:59;10.70;99.90
16643;DHT22;8435;52.184;5.406;2023-11-18T14:15:26;10.80;99.90
16643;DHT22;8435;52.184;5.406;2023-11-18T14:17:53;10.80;99.90
16643;DHT22;8435;52.184;5.406;2023-11-18T14:20:19;10.70;99.90
16643;DHT22;8435;52.184;5.406;2023-11-18T14:22:48;10.70;99.90
16643;DHT22;8435;52.184;5.406;2023-11-18T14:25:16;10.70;99.90
16643;DHT22;8435;52.184;5.406;2023-11-18T14:27:43;10.80;99.90
16643;DHT22;8435;52.184;5.406;2023-11-18T14:30:11;10.80;99.90
16643;DHT22;8435;52.184;5.406;2023-11-18T14:32:38;10.80;99.90
16643;DHT22;8435;52.184;5.406;2023-11-18T14:35:08;10.70;99.90
16643;DHT22;8435;52.184;5.406;2023-11-18T14:37:38;10.80;99.90
16643;DHT22;8435;52.184;5.406;2023-11-18T14:40:10;10.80;99.90
16643;DHT22;8435;52.184;5.406;2023-11-18T14:42:41;10.80;99.90
16643;DHT22;8435;52.184;5.406;2023-11-18T14:45:09;10.80;99.90
16643;DHT22;8435;52.184;5.406;2023-11-18T14:47:37;10.70;99.90
16643;DHT22;8435;52.184;5.406;2023-11-18T14:50:05;10.80;99.90
16643;DHT22;8435;52.184;5.406;2023-11-18T14:52:40;10.80;99.90
16643;DHT22;8435;52.184;5.406;2023-11-18T14:55:09;10.80;99.90
16643;DHT22;8435;52.184;5.406;2023-11-18T14:57:37;10.80;99.90
16643;DHT22;8435;52.184;5.406;2023-11-18T15:00:07;10.80;99.90
16643;DHT22;8435;52.184;5.406;2023-11-18T15:02:35;10.80;99.90
16643;DHT22;8435;52.184;5.406;2023-11-18T15:05:02;10.80;99.90
16643;DHT22;8435;52.184;5.406;2023-11-18T15:07:30;10.90;99.90
16643;DHT22;8435;52.184;5.406;2023-11-18T15:09:57;10.80;99.90
16643;DHT22;8435;52.184;5.406;2023-11-18T15:12:24;10.90;99.90
16643;DHT22;8435;52.184;5.406;2023-11-18T15:14:51;10.90;99.90
16643;DHT22;8435;52.184;5.406;2023-11-18T15:17:19;10.80;99.90
16643;DHT22;8435;52.184;5.406;2023-11-18T15:19:47;10.90;99.90
16643;DHT22;8435;52.184;5.406;2023-11-18T15:22:16;10.90;99.90
16643;DHT22;8435;52.184;5.406;2023-11-18T15:24:43;10.80;99.90
16643;DHT22;8435;52.184;5.406;2023-11-18T15:27:10;10.90;99.90
16643;DHT22;8435;52.184;5.406;2023-11-18T15:29:37;10.90;99.90
16643;DHT22;8435;52.184;5.406;2023-11-18T15:32:10;10.90;99.90
16643;DHT22;8435;52.184;5.406;2023-11-18T15:34:39;10.90;99.90
16643;DHT22;8435;52.184;5.406;2023-11-18T15:37:05;10.90;99.90
16643;DHT22;8435;52.184;5.406;2023-11-18T15:39:32;10.90;99.90
16643;DHT22;8435;52.184;5.406;2023-11-18T15:41:59;10.90;99.90
16643;DHT22;8435;52.184;5.406;2023-11-18T15:44:26;10.90;99.90
16643;DHT22;8435;52.184;5.406;2023-11-18T15:46:54;10.90;99.90
16643;DHT22;8435;52.184;5.406;2023-11-18T15:49:20;10.90;99.90
16643;DHT22;8435;52.184;5.406;2023-11-18T15:51:48;10.90;99.90
16643;DHT22;8435;52.184;5.406;2023-11-18T15:54:15;10.90;99.90
16643;DHT22;8435;52.184;5.406;2023-11-18T15:56:43;10.90;99.90
16643;DHT22;8435;52.184;5.406;2023-11-18T15:59:10;10.90;99.90
16643;DHT22;8435;52.184;5.406;2023-11-18T16:01:38;11.00;99.90
16643;DHT22;8435;52.184;5.406;2023-11-18T16:04:05;11.00;99.90
16643;DHT22;8435;52.184;5.406;2023-11-18T16:06:32;11.00;99.90
16643;DHT22;8435;52.184;5.406;2023-11-18T16:09:00;11.00;99.90
16643;DHT22;8435;52.184;5.406;2023-11-18T16:11:28;11.00;99.90
16643;DHT22;8435;52.184;5.406;2023-11-18T16:13:56;11.10;99.90
16643;DHT22;8435;52.184;5.406;2023-11-18T16:16:24;11.10;99.90